sensor_id;sensor_type;location;lat;lon;timestamp;P1;durP1;ratioP1;P2;durP2;ratioP2
8913;SDS011;4492;48.736;9.092;2023-05-31T00:00:10;2.70;;;1.60;;
8913;SDS011;4492;48.736;9.092;2023-05-31T00:02:37;2.30;;;1.50;;
8913;SDS011;4492;48.736;9.092;2023-05-31T00:05:02;5.07;;;1.70;;
8913;SDS011;4492;48.736;9.092;2023-05-31T00:07:28;3.97;;;1.63;;
8913;SDS011;4492;48.736;9.092;2023-05-31T00:09:54;3.43;;;1.80;;
8913;SDS011;4492;48.736;9.092;2023-05-31T00:12:19;2.67;;;1.60;;
8913;SDS011;4492;48.736;9.092;2023-05-31T00:14:45;7.83;;;1.90;;
8913;SDS011;4492;48.736;9.092;2023-05-31T00:17:11;2.33;;;1.63;;
8913;SDS011;4492;48.736;9.092;2023-05-31T00:19:37;2.63;;;2.00;;
8913;SDS011;4492;48.736;9.092;2023-05-31T00:22:02;5.30;;;2.30;;
8913;SDS011;4492;48.736;9.092;2023-05-31T00:24:28;4.67;;;2.00;;
8913;SDS011;4492;48.736;9.092;2023-05-31T00:26:53;3.90;;;1.97;;
8913;SDS011;4492;48.736;9.092;2023-05-31T00:29:19;3.53;;;1.87;;
8913;SDS011;4492;48.736;9.092;2023-05-31T00:31:44;6.00;;;1.60;;
8913;SDS011;4492;48.736;9.092;2023-05-31T00:34:10;2.70;;;1.87;;
8913;SDS011;4492;48.736;9.092;2023-05-31T00:36:37;2.73;;;1.80;;
8913;SDS011;4492;48.736;9.092;2023-05-31T00:39:02;2.53;;;1.67;;
8913;SDS011;4492;48.736;9.092;2023-05-31T00:41:28;3.77;;;1.60;;
8913;SDS011;4492;48.736;9.092;2023-05-31T00:43:53;1.63;;;1.50;;
8913;SDS011;4492;48.736;9.092;2023-05-31T00:46:26;3.20;;;1.73;;
8913;SDS011;4492;48.736;9.092;2023-05-31T00:48:55;2.77;;;1.30;;
8913;SDS011;4492;48.736;9.092;2023-05-31T00:51:21;2.60;;;1.70;;
8913;SDS011;4492;48.736;9.092;2023-05-31T00:53:47;1.97;;;1.80;;
8913;SDS011;4492;48.736;9.092;2023-05-31T00:56:13;3.40;;;1.70;;
8913;SDS011;4492;48.736;9.092;2023-05-31T00:58:40;1.77;;;1.43;;
8913;SDS011;4492;48.736;9.092;2023-05-31T01:01:07;1.40;;;1.30;;
8913;SDS011;4492;48.736;9.092;2023-05-31T01:03:33;3.23;;;1.60;;
8913;SDS011;4492;48.736;9.092;2023-05-31T01:05:59;4.10;;;2.10;;
8913;SDS011;4492;48.736;9.092;2023-05-31T01:08:25;2.60;;;1.57;;
8913;SDS011;4492;48.736;9.092;2023-05-31T01:10:51;2.27;;;1.40;;
8913;SDS011;4492;48.736;9.092;2023-05-31T01:13:23;5.67;;;1.80;;
8913;SDS011;4492;48.736;9.092;2023-05-31T01:16:04;3.17;;;1.77;;
8913;SDS011;4492;48.736;9.092;2023-05-31T01:18:37;5.47;;;2.00;;
8913;SDS011;4492;48.736;9.092;2023-05-31T01:21:09;3.50;;;1.80;;
8913;SDS011;4492;48.736;9.092;2023-05-31T01:26:33;2.10;;;1.70;;
8913;SDS011;4492;48.736;9.092;2023-05-31T01:29:07;4.27;;;1.87;;
8913;SDS011;4492;48.736;9.092;2023-05-31T01:31:35;2.00;;;1.80;;
8913;SDS011;4492;48.736;9.092;2023-05-31T01:34:05;3.80;;;1.87;;
8913;SDS011;4492;48.736;9.092;2023-05-31T01:36:31;2.03;;;1.73;;
8913;SDS011;4492;48.736;9.092;2023-05-31T01:38:57;4.53;;;2.00;;
8913;SDS011;4492;48.736;9.092;2023-05-31T01:41:23;3.03;;;1.57;;
8913;SDS011;4492;48.736;9.092;2023-05-31T01:43:51;3.50;;;1.73;;
8913;SDS011;4492;48.736;9.092;2023-05-31T01:46:17;2.70;;;1.67;;
8913;SDS011;4492;48.736;9.092;2023-05-31T01:48:44;1.60;;;1.50;;
8913;SDS011;4492;48.736;9.092;2023-05-31T01:51:11;1.90;;;1.70;;
8913;SDS011;4492;48.736;9.092;2023-05-31T01:53:39;1.60;;;1.50;;
8913;SDS011;4492;48.736;9.092;2023-05-31T01:56:06;4.23;;;1.57;;
8913;SDS011;4492;48.736;9.092;2023-05-31T01:58:33;2.93;;;1.57;;
8913;SDS011;4492;48.736;9.092;2023-05-31T02:01:01;4.63;;;1.97;;
8913;SDS011;4492;48.736;9.092;2023-05-31T02:03:26;3.50;;;1.60;;
8913;SDS011;4492;48.736;9.092;2023-05-31T02:05:59;2.77;;;1.70;;
8913;SDS011;4492;48.736;9.092;2023-05-31T02:08:25;2.93;;;1.50;;
8913;SDS011;4492;48.736;9.092;2023-05-31T02:10:52;3.30;;;1.70;;
8913;SDS011;4492;48.736;9.092;2023-05-31T02:13:18;5.80;;;2.13;;
8913;SDS011;4492;48.736;9.092;2023-05-31T02:15:44;2.23;;;1.60;;
8913;SDS011;4492;48.736;9.092;2023-05-31T02:18:10;2.40;;;1.63;;
8913;SDS011;4492;48.736;9.092;2023-05-31T02:20:35;4.93;;;1.97;;
8913;SDS011;4492;48.736;9.092;2023-05-31T02:23:01;2.67;;;1.40;;
8913;SDS011;4492;48.736;9.092;2023-05-31T02:25:26;5.10;;;1.47;;
8913;SDS011;4492;48.736;9.092;2023-05-31T02:27:52;2.73;;;1.57;;
8913;SDS011;4492;48.736;9.092;2023-05-31T02:30:17;3.10;;;1.77;;
8913;SDS011;4492;48.736;9.092;2023-05-31T02:32:44;1.40;;;1.30;;
8913;SDS011;4492;48.736;9.092;2023-05-31T02:35:10;3.30;;;1.77;;
8913;SDS011;4492;48.736;9.092;2023-05-31T02:37:37;4.33;;;1.87;;
8913;SDS011;4492;48.736;9.092;2023-05-31T02:40:04;2.20;;;1.57;;
8913;SDS011;4492;48.736;9.092;2023-05-31T02:42:38;2.27;;;1.60;;
8913;SDS011;4492;48.736;9.092;2023-05-31T02:45:05;2.33;;;1.40;;
8913;SDS011;4492;48.736;9.092;2023-05-31T02:47:31;3.37;;;1.73;;
8913;SDS011;4492;48.736;9.092;2023-05-31T02:49:57;7.20;;;2.20;;
8913;SDS011;4492;48.736;9.092;2023-05-31T02:52:22;2.30;;;1.80;;
8913;SDS011;4492;48.736;9.092;2023-05-31T02:54:49;4.77;;;1.50;;
8913;SDS011;4492;48.736;9.092;2023-05-31T02:57:15;3.27;;;1.57;;
8913;SDS011;4492;48.736;9.092;2023-05-31T02:59:43;3.93;;;1.70;;
8913;SDS011;4492;48.736;9.092;2023-05-31T03:02:09;2.20;;;1.63;;
8913;SDS011;4492;48.736;9.092;2023-05-31T03:04:34;3.17;;;1.50;;
8913;SDS011;4492;48.736;9.092;2023-05-31T03:07:00;2.43;;;1.50;;
8913;SDS011;4492;48.736;9.092;2023-05-31T03:09:26;2.43;;;1.60;;
8913;SDS011;4492;48.736;9.092;2023-05-31T03:11:51;3.57;;;1.67;;
8913;SDS011;4492;48.736;9.092;2023-05-31T03:14:17;2.63;;;1.53;;
8913;SDS011;4492;48.736;9.092;2023-05-31T03:16:42;2.60;;;1.80;;
8913;SDS011;4492;48.736;9.092;2023-05-31T03:19:08;1.50;;;1.40;;
8913;SDS011;4492;48.736;9.092;2023-05-31T03:21:34;2.10;;;1.63;;
8913;SDS011;4492;48.736;9.092;2023-05-31T03:24:00;2.70;;;1.70;;
8913;SDS011;4492;48.736;9.092;2023-05-31T03:26:26;1.53;;;1.30;;
8913;SDS011;4492;48.736;9.092;2023-05-31T03:28:52;2.13;;;1.60;;
8913;SDS011;4492;48.736;9.092;2023-05-31T03:31:17;3.20;;;1.50;;
8913;SDS011;4492;48.736;9.092;2023-05-31T03:33:44;2.93;;;1.30;;
8913;SDS011;4492;48.736;9.092;2023-05-31T03:36:10;1.53;;;1.43;;
8913;SDS011;4492;48.736;9.092;2023-05-31T03:38:35;2.13;;;1.60;;
8913;SDS011;4492;48.736;9.092;2023-05-31T03:41:01;2.83;;;1.60;;
8913;SDS011;4492;48.736;9.092;2023-05-31T03:43:26;2.40;;;1.67;;
8913;SDS011;4492;48.736;9.092;2023-05-31T03:45:52;3.37;;;1.60;;
8913;SDS011;4492;48.736;9.092;2023-05-31T03:48:17;3.37;;;2.20;;
8913;SDS011;4492;48.736;9.092;2023-05-31T03:50:43;2.43;;;1.53;;
8913;SDS011;4492;48.736;9.092;2023-05-31T03:53:09;3.77;;;1.40;;
8913;SDS011;4492;48.736;9.092;2023-05-31T03:55:35;2.03;;;1.60;;
8913;SDS011;4492;48.736;9.092;2023-05-31T03:58:01;2.20;;;1.50;;
8913;SDS011;4492;48.736;9.092;2023-05-31T04:00:27;3.27;;;1.50;;
8913;SDS011;4492;48.736;9.092;2023-05-31T04:02:53;3.23;;;1.43;;
8913;SDS011;4492;48.736;9.092;2023-05-31T04:05:19;2.57;;;1.30;;
8913;SDS011;4492;48.736;9.092;2023-05-31T04:07:45;3.33;;;1.30;;
8913;SDS011;4492;48.736;9.092;2023-05-31T04:10:10;2.73;;;1.43;;
8913;SDS011;4492;48.736;9.092;2023-05-31T04:12:36;5.50;;;1.80;;
8913;SDS011;4492;48.736;9.092;2023-05-31T04:15:01;1.90;;;1.50;;
8913;SDS011;4492;48.736;9.092;2023-05-31T04:17:27;2.87;;;1.87;;
8913;SDS011;4492;48.736;9.092;2023-05-31T04:19:53;2.77;;;1.87;;
8913;SDS011;4492;48.736;9.092;2023-05-31T04:22:18;6.33;;;1.60;;
8913;SDS011;4492;48.736;9.092;2023-05-31T04:24:45;2.63;;;1.57;;
8913;SDS011;4492;48.736;9.092;2023-05-31T04:27:11;2.00;;;1.43;;
8913;SDS011;4492;48.736;9.092;2023-05-31T04:29:36;3.53;;;1.83;;
8913;SDS011;4492;48.736;9.092;2023-05-31T04:32:02;1.80;;;1.30;;
8913;SDS011;4492;48.736;9.092;2023-05-31T04:34:27;4.23;;;1.80;;
8913;SDS011;4492;48.736;9.092;2023-05-31T04:36:53;3.30;;;1.70;;
8913;SDS011;4492;48.736;9.092;2023-05-31T04:39:19;6.77;;;2.00;;
8913;SDS011;4492;48.736;9.092;2023-05-31T04:41:46;3.10;;;1.63;;
8913;SDS011;4492;48.736;9.092;2023-05-31T04:44:12;2.33;;;1.60;;
8913;SDS011;4492;48.736;9.092;2023-05-31T04:46:38;2.60;;;1.77;;
8913;SDS011;4492;48.736;9.092;2023-05-31T04:49:06;2.30;;;1.50;;
8913;SDS011;4492;48.736;9.092;2023-05-31T04:51:31;2.83;;;1.40;;
8913;SDS011;4492;48.736;9.092;2023-05-31T04:53:57;3.50;;;1.60;;
8913;SDS011;4492;48.736;9.092;2023-05-31T04:56:23;4.20;;;1.73;;
8913;SDS011;4492;48.736;9.092;2023-05-31T04:58:50;3.00;;;1.70;;
8913;SDS011;4492;48.736;9.092;2023-05-31T05:01:16;3.43;;;1.60;;
8913;SDS011;4492;48.736;9.092;2023-05-31T05:03:41;4.80;;;2.20;;
8913;SDS011;4492;48.736;9.092;2023-05-31T05:06:13;2.93;;;1.90;;
8913;SDS011;4492;48.736;9.092;2023-05-31T05:08:43;2.80;;;1.70;;
8913;SDS011;4492;48.736;9.092;2023-05-31T05:11:09;4.43;;;1.90;;
8913;SDS011;4492;48.736;9.092;2023-05-31T05:13:35;4.87;;;1.80;;
8913;SDS011;4492;48.736;9.092;2023-05-31T05:16:01;2.60;;;1.63;;
8913;SDS011;4492;48.736;9.092;2023-05-31T05:18:27;3.17;;;2.10;;
8913;SDS011;4492;48.736;9.092;2023-05-31T05:20:54;1.73;;;1.40;;
8913;SDS011;4492;48.736;9.092;2023-05-31T05:23:19;4.97;;;2.10;;
8913;SDS011;4492;48.736;9.092;2023-05-31T05:25:45;5.00;;;1.57;;
8913;SDS011;4492;48.736;9.092;2023-05-31T05:28:10;2.33;;;1.50;;
8913;SDS011;4492;48.736;9.092;2023-05-31T05:30:36;1.97;;;1.67;;
8913;SDS011;4492;48.736;9.092;2023-05-31T05:33:02;3.17;;;1.87;;
8913;SDS011;4492;48.736;9.092;2023-05-31T05:35:28;2.47;;;1.67;;
8913;SDS011;4492;48.736;9.092;2023-05-31T05:37:53;3.37;;;1.70;;
8913;SDS011;4492;48.736;9.092;2023-05-31T05:40:20;4.70;;;2.03;;
8913;SDS011;4492;48.736;9.092;2023-05-31T05:42:47;5.87;;;2.00;;
8913;SDS011;4492;48.736;9.092;2023-05-31T05:45:12;3.23;;;1.70;;
8913;SDS011;4492;48.736;9.092;2023-05-31T05:47:38;3.13;;;1.80;;
8913;SDS011;4492;48.736;9.092;2023-05-31T05:50:04;5.50;;;1.90;;
8913;SDS011;4492;48.736;9.092;2023-05-31T05:52:30;3.10;;;1.70;;
8913;SDS011;4492;48.736;9.092;2023-05-31T05:54:55;3.10;;;1.87;;
8913;SDS011;4492;48.736;9.092;2023-05-31T05:57:21;4.33;;;1.87;;
8913;SDS011;4492;48.736;9.092;2023-05-31T05:59:46;4.50;;;2.10;;
8913;SDS011;4492;48.736;9.092;2023-05-31T06:02:12;4.03;;;1.90;;
8913;SDS011;4492;48.736;9.092;2023-05-31T06:04:37;3.90;;;2.30;;
8913;SDS011;4492;48.736;9.092;2023-05-31T06:07:03;3.43;;;2.03;;
8913;SDS011;4492;48.736;9.092;2023-05-31T06:09:29;3.93;;;1.80;;
8913;SDS011;4492;48.736;9.092;2023-05-31T06:11:55;3.70;;;2.30;;
8913;SDS011;4492;48.736;9.092;2023-05-31T06:14:20;3.30;;;1.90;;
8913;SDS011;4492;48.736;9.092;2023-05-31T06:16:46;3.47;;;2.03;;
8913;SDS011;4492;48.736;9.092;2023-05-31T06:19:11;6.00;;;2.10;;
8913;SDS011;4492;48.736;9.092;2023-05-31T06:21:37;2.97;;;2.10;;
8913;SDS011;4492;48.736;9.092;2023-05-31T06:24:02;3.13;;;2.03;;
8913;SDS011;4492;48.736;9.092;2023-05-31T06:26:28;4.20;;;1.93;;
8913;SDS011;4492;48.736;9.092;2023-05-31T06:28:55;3.67;;;1.93;;
8913;SDS011;4492;48.736;9.092;2023-05-31T06:31:25;4.13;;;1.97;;
8913;SDS011;4492;48.736;9.092;2023-05-31T06:33:52;3.23;;;2.00;;
8913;SDS011;4492;48.736;9.092;2023-05-31T06:36:17;3.43;;;2.10;;
8913;SDS011;4492;48.736;9.092;2023-05-31T06:38:43;3.10;;;1.93;;
8913;SDS011;4492;48.736;9.092;2023-05-31T06:41:11;3.30;;;2.20;;
8913;SDS011;4492;48.736;9.092;2023-05-31T06:43:36;3.53;;;2.13;;
8913;SDS011;4492;48.736;9.092;2023-05-31T06:46:02;4.47;;;1.93;;
8913;SDS011;4492;48.736;9.092;2023-05-31T06:48:28;2.70;;;1.83;;
8913;SDS011;4492;48.736;9.092;2023-05-31T06:50:53;7.40;;;2.30;;
8913;SDS011;4492;48.736;9.092;2023-05-31T06:53:19;2.87;;;2.10;;
8913;SDS011;4492;48.736;9.092;2023-05-31T06:55:44;5.03;;;2.00;;
8913;SDS011;4492;48.736;9.092;2023-05-31T06:58:10;2.70;;;2.00;;
8913;SDS011;4492;48.736;9.092;2023-05-31T07:00:36;4.63;;;2.47;;
8913;SDS011;4492;48.736;9.092;2023-05-31T07:03:01;5.20;;;2.27;;
8913;SDS011;4492;48.736;9.092;2023-05-31T07:05:28;3.20;;;2.30;;
8913;SDS011;4492;48.736;9.092;2023-05-31T07:07:54;6.00;;;2.00;;
8913;SDS011;4492;48.736;9.092;2023-05-31T07:10:20;6.53;;;2.30;;
8913;SDS011;4492;48.736;9.092;2023-05-31T07:12:45;4.23;;;2.37;;
8913;SDS011;4492;48.736;9.092;2023-05-31T07:15:11;3.37;;;2.13;;
8913;SDS011;4492;48.736;9.092;2023-05-31T07:17:36;4.10;;;2.87;;
8913;SDS011;4492;48.736;9.092;2023-05-31T07:20:02;2.70;;;2.10;;
8913;SDS011;4492;48.736;9.092;2023-05-31T07:22:30;6.00;;;2.30;;
8913;SDS011;4492;48.736;9.092;2023-05-31T07:24:55;4.30;;;2.13;;
8913;SDS011;4492;48.736;9.092;2023-05-31T07:27:22;3.13;;;2.30;;
8913;SDS011;4492;48.736;9.092;2023-05-31T07:29:47;3.23;;;2.50;;
8913;SDS011;4492;48.736;9.092;2023-05-31T07:32:13;5.97;;;2.50;;
8913;SDS011;4492;48.736;9.092;2023-05-31T07:34:39;7.70;;;2.53;;
8913;SDS011;4492;48.736;9.092;2023-05-31T07:37:04;5.03;;;2.87;;
8913;SDS011;4492;48.736;9.092;2023-05-31T07:39:30;4.20;;;2.33;;
8913;SDS011;4492;48.736;9.092;2023-05-31T07:41:56;4.60;;;2.47;;
8913;SDS011;4492;48.736;9.092;2023-05-31T07:44:23;8.43;;;2.40;;
8913;SDS011;4492;48.736;9.092;2023-05-31T07:46:50;2.83;;;2.13;;
8913;SDS011;4492;48.736;9.092;2023-05-31T07:49:15;6.00;;;2.37;;
8913;SDS011;4492;48.736;9.092;2023-05-31T07:51:41;5.43;;;2.60;;
8913;SDS011;4492;48.736;9.092;2023-05-31T07:54:06;4.13;;;2.60;;
8913;SDS011;4492;48.736;9.092;2023-05-31T07:56:32;7.37;;;2.40;;
8913;SDS011;4492;48.736;9.092;2023-05-31T07:58:57;4.73;;;2.50;;
8913;SDS011;4492;48.736;9.092;2023-05-31T08:01:23;3.83;;;2.30;;
8913;SDS011;4492;48.736;9.092;2023-05-31T08:03:48;3.87;;;2.50;;
8913;SDS011;4492;48.736;9.092;2023-05-31T08:06:17;2.63;;;2.27;;
8913;SDS011;4492;48.736;9.092;2023-05-31T08:08:43;4.83;;;2.37;;
8913;SDS011;4492;48.736;9.092;2023-05-31T08:11:08;3.97;;;2.17;;
8913;SDS011;4492;48.736;9.092;2023-05-31T08:13:34;4.23;;;2.40;;
8913;SDS011;4492;48.736;9.092;2023-05-31T08:16:00;4.37;;;2.33;;
8913;SDS011;4492;48.736;9.092;2023-05-31T08:18:25;4.30;;;2.13;;
8913;SDS011;4492;48.736;9.092;2023-05-31T08:20:51;4.17;;;2.53;;
8913;SDS011;4492;48.736;9.092;2023-05-31T08:23:17;4.33;;;2.00;;
8913;SDS011;4492;48.736;9.092;2023-05-31T08:25:43;3.87;;;2.30;;
8913;SDS011;4492;48.736;9.092;2023-05-31T08:28:09;3.50;;;2.80;;
8913;SDS011;4492;48.736;9.092;2023-05-31T08:30:34;4.23;;;2.30;;
8913;SDS011;4492;48.736;9.092;2023-05-31T08:33:01;4.57;;;2.53;;
8913;SDS011;4492;48.736;9.092;2023-05-31T08:35:26;6.80;;;2.53;;
8913;SDS011;4492;48.736;9.092;2023-05-31T08:37:52;5.03;;;2.53;;
8913;SDS011;4492;48.736;9.092;2023-05-31T08:40:19;4.83;;;2.20;;
8913;SDS011;4492;48.736;9.092;2023-05-31T08:42:54;4.17;;;2.47;;
8913;SDS011;4492;48.736;9.092;2023-05-31T08:45:25;7.37;;;2.67;;
8913;SDS011;4492;48.736;9.092;2023-05-31T08:47:59;7.17;;;2.33;;
8913;SDS011;4492;48.736;9.092;2023-05-31T08:50:31;2.83;;;2.40;;
8913;SDS011;4492;48.736;9.092;2023-05-31T08:52:57;4.03;;;2.37;;
8913;SDS011;4492;48.736;9.092;2023-05-31T08:55:24;5.43;;;2.80;;
8913;SDS011;4492;48.736;9.092;2023-05-31T08:57:50;3.87;;;2.33;;
8913;SDS011;4492;48.736;9.092;2023-05-31T09:00:17;3.43;;;2.10;;
8913;SDS011;4492;48.736;9.092;2023-05-31T09:02:44;7.37;;;2.60;;
8913;SDS011;4492;48.736;9.092;2023-05-31T09:05:12;6.97;;;2.90;;
8913;SDS011;4492;48.736;9.092;2023-05-31T09:07:39;5.47;;;2.57;;
8913;SDS011;4492;48.736;9.092;2023-05-31T09:10:05;3.20;;;2.50;;
8913;SDS011;4492;48.736;9.092;2023-05-31T09:12:33;3.90;;;2.53;;
8913;SDS011;4492;48.736;9.092;2023-05-31T09:15:00;3.50;;;2.40;;
8913;SDS011;4492;48.736;9.092;2023-05-31T09:17:25;4.17;;;2.30;;
8913;SDS011;4492;48.736;9.092;2023-05-31T09:19:53;4.77;;;2.60;;
8913;SDS011;4492;48.736;9.092;2023-05-31T09:22:22;3.67;;;2.40;;
8913;SDS011;4492;48.736;9.092;2023-05-31T09:24:58;6.33;;;2.60;;
8913;SDS011;4492;48.736;9.092;2023-05-31T09:27:25;5.73;;;2.53;;
8913;SDS011;4492;48.736;9.092;2023-05-31T09:29:52;5.90;;;2.87;;
8913;SDS011;4492;48.736;9.092;2023-05-31T09:32:19;3.73;;;2.73;;
8913;SDS011;4492;48.736;9.092;2023-05-31T09:34:45;3.93;;;2.50;;
8913;SDS011;4492;48.736;9.092;2023-05-31T09:37:23;2.70;;;2.17;;
8913;SDS011;4492;48.736;9.092;2023-05-31T09:39:56;5.63;;;2.47;;
8913;SDS011;4492;48.736;9.092;2023-05-31T09:42:25;4.60;;;2.30;;
8913;SDS011;4492;48.736;9.092;2023-05-31T09:44:51;5.63;;;2.67;;
8913;SDS011;4492;48.736;9.092;2023-05-31T09:47:22;5.03;;;2.53;;
8913;SDS011;4492;48.736;9.092;2023-05-31T09:49:49;3.87;;;2.47;;
8913;SDS011;4492;48.736;9.092;2023-05-31T09:52:14;5.47;;;2.50;;
8913;SDS011;4492;48.736;9.092;2023-05-31T09:54:40;4.53;;;2.30;;
8913;SDS011;4492;48.736;9.092;2023-05-31T09:57:06;3.87;;;2.47;;
8913;SDS011;4492;48.736;9.092;2023-05-31T09:59:37;6.80;;;2.53;;
8913;SDS011;4492;48.736;9.092;2023-05-31T10:02:05;6.23;;;2.80;;
8913;SDS011;4492;48.736;9.092;2023-05-31T10:04:32;3.87;;;2.40;;
8913;SDS011;4492;48.736;9.092;2023-05-31T10:07:00;5.53;;;2.60;;
8913;SDS011;4492;48.736;9.092;2023-05-31T10:09:26;4.47;;;2.33;;
8913;SDS011;4492;48.736;9.092;2023-05-31T10:11:51;3.17;;;2.60;;
8913;SDS011;4492;48.736;9.092;2023-05-31T10:14:24;5.53;;;2.27;;
8913;SDS011;4492;48.736;9.092;2023-05-31T10:16:55;3.77;;;2.53;;
8913;SDS011;4492;48.736;9.092;2023-05-31T10:19:31;3.97;;;2.30;;
8913;SDS011;4492;48.736;9.092;2023-05-31T10:22:01;5.07;;;2.50;;
8913;SDS011;4492;48.736;9.092;2023-05-31T10:24:32;5.37;;;2.53;;
8913;SDS011;4492;48.736;9.092;2023-05-31T10:27:13;2.63;;;2.20;;
8913;SDS011;4492;48.736;9.092;2023-05-31T10:29:55;5.47;;;2.70;;
8913;SDS011;4492;48.736;9.092;2023-05-31T10:32:28;3.20;;;2.40;;
8913;SDS011;4492;48.736;9.092;2023-05-31T10:34:56;4.27;;;2.33;;
8913;SDS011;4492;48.736;9.092;2023-05-31T10:37:22;3.03;;;2.40;;
8913;SDS011;4492;48.736;9.092;2023-05-31T10:39:52;4.27;;;2.10;;
8913;SDS011;4492;48.736;9.092;2023-05-31T10:47:49;3.67;;;2.43;;
8913;SDS011;4492;48.736;9.092;2023-05-31T10:50:20;4.87;;;2.20;;
8913;SDS011;4492;48.736;9.092;2023-05-31T10:52:52;2.50;;;2.17;;
8913;SDS011;4492;48.736;9.092;2023-05-31T10:55:39;6.00;;;2.37;;
8913;SDS011;4492;48.736;9.092;2023-05-31T10:58:07;4.47;;;2.33;;
8913;SDS011;4492;48.736;9.092;2023-05-31T11:00:48;3.73;;;2.13;;
8913;SDS011;4492;48.736;9.092;2023-05-31T11:03:19;4.77;;;2.07;;
8913;SDS011;4492;48.736;9.092;2023-05-31T11:05:59;3.53;;;2.20;;
8913;SDS011;4492;48.736;9.092;2023-05-31T11:08:26;2.77;;;2.10;;
8913;SDS011;4492;48.736;9.092;2023-05-31T11:11:08;3.07;;;1.97;;
8913;SDS011;4492;48.736;9.092;2023-05-31T11:19:19;8.70;;;2.80;;
8913;SDS011;4492;48.736;9.092;2023-05-31T11:21:52;4.27;;;2.47;;
8913;SDS011;4492;48.736;9.092;2023-05-31T11:24:26;3.77;;;2.20;;
8913;SDS011;4492;48.736;9.092;2023-05-31T11:26:58;4.20;;;2.27;;
8913;SDS011;4492;48.736;9.092;2023-05-31T11:32:20;3.50;;;2.67;;
8913;SDS011;4492;48.736;9.092;2023-05-31T11:34:50;3.97;;;2.83;;
8913;SDS011;4492;48.736;9.092;2023-05-31T11:37:18;7.83;;;2.60;;
8913;SDS011;4492;48.736;9.092;2023-05-31T11:39:46;2.93;;;2.37;;
8913;SDS011;4492;48.736;9.092;2023-05-31T11:42:12;3.10;;;2.23;;
8913;SDS011;4492;48.736;9.092;2023-05-31T11:44:42;6.73;;;2.10;;
8913;SDS011;4492;48.736;9.092;2023-05-31T11:47:19;4.27;;;2.20;;
8913;SDS011;4492;48.736;9.092;2023-05-31T11:49:46;6.23;;;2.30;;
8913;SDS011;4492;48.736;9.092;2023-05-31T11:52:15;2.50;;;2.20;;
8913;SDS011;4492;48.736;9.092;2023-05-31T11:54:42;3.97;;;2.53;;
8913;SDS011;4492;48.736;9.092;2023-05-31T11:57:10;2.83;;;2.40;;
8913;SDS011;4492;48.736;9.092;2023-05-31T11:59:36;2.70;;;2.30;;
8913;SDS011;4492;48.736;9.092;2023-05-31T12:02:04;2.87;;;2.30;;
8913;SDS011;4492;48.736;9.092;2023-05-31T12:04:31;3.00;;;2.20;;
8913;SDS011;4492;48.736;9.092;2023-05-31T12:07:02;3.93;;;2.33;;
8913;SDS011;4492;48.736;9.092;2023-05-31T12:09:35;3.10;;;1.97;;
8913;SDS011;4492;48.736;9.092;2023-05-31T12:12:01;9.03;;;2.60;;
8913;SDS011;4492;48.736;9.092;2023-05-31T12:14:28;3.93;;;2.30;;
8913;SDS011;4492;48.736;9.092;2023-05-31T12:16:54;4.80;;;2.40;;
8913;SDS011;4492;48.736;9.092;2023-05-31T12:19:20;5.03;;;2.40;;
8913;SDS011;4492;48.736;9.092;2023-05-31T12:21:46;5.10;;;2.33;;
8913;SDS011;4492;48.736;9.092;2023-05-31T12:24:16;3.00;;;2.20;;
8913;SDS011;4492;48.736;9.092;2023-05-31T12:26:46;3.43;;;2.50;;
8913;SDS011;4492;48.736;9.092;2023-05-31T12:29:16;3.13;;;2.47;;
8913;SDS011;4492;48.736;9.092;2023-05-31T12:31:42;2.73;;;2.13;;
8913;SDS011;4492;48.736;9.092;2023-05-31T12:34:12;4.03;;;2.17;;
8913;SDS011;4492;48.736;9.092;2023-05-31T12:36:42;3.07;;;2.00;;
8913;SDS011;4492;48.736;9.092;2023-05-31T12:39:19;2.70;;;1.93;;
8913;SDS011;4492;48.736;9.092;2023-05-31T12:41:46;4.17;;;2.30;;
8913;SDS011;4492;48.736;9.092;2023-05-31T12:44:19;2.33;;;1.83;;
8913;SDS011;4492;48.736;9.092;2023-05-31T12:46:47;2.73;;;2.00;;
8913;SDS011;4492;48.736;9.092;2023-05-31T12:49:20;2.97;;;2.17;;
8913;SDS011;4492;48.736;9.092;2023-05-31T12:52:00;3.23;;;2.27;;
8913;SDS011;4492;48.736;9.092;2023-05-31T12:54:30;2.77;;;2.00;;
8913;SDS011;4492;48.736;9.092;2023-05-31T12:56:59;6.23;;;2.30;;
8913;SDS011;4492;48.736;9.092;2023-05-31T12:59:29;3.07;;;1.73;;
8913;SDS011;4492;48.736;9.092;2023-05-31T13:01:55;2.40;;;2.10;;
8913;SDS011;4492;48.736;9.092;2023-05-31T13:04:24;7.43;;;2.30;;
8913;SDS011;4492;48.736;9.092;2023-05-31T13:06:50;5.70;;;2.33;;
8913;SDS011;4492;48.736;9.092;2023-05-31T13:09:17;3.30;;;2.47;;
8913;SDS011;4492;48.736;9.092;2023-05-31T13:11:43;2.97;;;1.90;;
8913;SDS011;4492;48.736;9.092;2023-05-31T13:14:09;3.83;;;1.97;;
8913;SDS011;4492;48.736;9.092;2023-05-31T13:16:36;3.53;;;2.20;;
8913;SDS011;4492;48.736;9.092;2023-05-31T13:19:03;2.40;;;2.13;;
8913;SDS011;4492;48.736;9.092;2023-05-31T13:21:30;2.57;;;1.90;;
8913;SDS011;4492;48.736;9.092;2023-05-31T13:23:57;5.23;;;2.17;;
8913;SDS011;4492;48.736;9.092;2023-05-31T13:26:23;4.83;;;2.13;;
8913;SDS011;4492;48.736;9.092;2023-05-31T13:28:51;4.43;;;2.13;;
8913;SDS011;4492;48.736;9.092;2023-05-31T13:31:17;2.53;;;2.00;;
8913;SDS011;4492;48.736;9.092;2023-05-31T13:33:44;2.20;;;2.00;;
8913;SDS011;4492;48.736;9.092;2023-05-31T13:36:11;2.40;;;2.13;;
8913;SDS011;4492;48.736;9.092;2023-05-31T13:38:38;3.90;;;2.50;;
8913;SDS011;4492;48.736;9.092;2023-05-31T13:41:04;2.33;;;1.80;;
8913;SDS011;4492;48.736;9.092;2023-05-31T13:43:30;2.77;;;1.83;;
8913;SDS011;4492;48.736;9.092;2023-05-31T13:45:56;3.53;;;2.10;;
8913;SDS011;4492;48.736;9.092;2023-05-31T13:48:23;2.60;;;1.83;;
8913;SDS011;4492;48.736;9.092;2023-05-31T13:50:48;2.00;;;1.73;;
8913;SDS011;4492;48.736;9.092;2023-05-31T13:53:14;3.53;;;2.23;;
8913;SDS011;4492;48.736;9.092;2023-05-31T13:55:40;3.30;;;2.20;;
8913;SDS011;4492;48.736;9.092;2023-05-31T13:58:06;2.57;;;2.30;;
8913;SDS011;4492;48.736;9.092;2023-05-31T14:00:31;3.40;;;2.20;;
8913;SDS011;4492;48.736;9.092;2023-05-31T14:02:58;2.40;;;2.03;;
8913;SDS011;4492;48.736;9.092;2023-05-31T14:05:24;3.53;;;2.27;;
8913;SDS011;4492;48.736;9.092;2023-05-31T14:07:53;3.03;;;2.80;;
8913;SDS011;4492;48.736;9.092;2023-05-31T14:10:19;5.53;;;2.70;;
8913;SDS011;4492;48.736;9.092;2023-05-31T14:12:45;3.50;;;2.00;;
8913;SDS011;4492;48.736;9.092;2023-05-31T14:15:12;2.60;;;2.40;;
8913;SDS011;4492;48.736;9.092;2023-05-31T14:17:41;2.70;;;1.73;;
8913;SDS011;4492;48.736;9.092;2023-05-31T14:20:07;2.57;;;1.97;;
8913;SDS011;4492;48.736;9.092;2023-05-31T14:22:33;2.97;;;1.93;;
8913;SDS011;4492;48.736;9.092;2023-05-31T14:24:59;3.87;;;2.20;;
8913;SDS011;4492;48.736;9.092;2023-05-31T14:27:24;3.03;;;2.03;;
8913;SDS011;4492;48.736;9.092;2023-05-31T14:29:50;3.63;;;2.03;;
8913;SDS011;4492;48.736;9.092;2023-05-31T14:32:16;3.23;;;2.37;;
8913;SDS011;4492;48.736;9.092;2023-05-31T14:34:45;2.47;;;1.80;;
8913;SDS011;4492;48.736;9.092;2023-05-31T14:37:11;2.93;;;2.27;;
8913;SDS011;4492;48.736;9.092;2023-05-31T14:39:37;3.90;;;2.17;;
8913;SDS011;4492;48.736;9.092;2023-05-31T14:42:03;3.33;;;1.90;;
8913;SDS011;4492;48.736;9.092;2023-05-31T14:44:30;2.30;;;1.53;;
8913;SDS011;4492;48.736;9.092;2023-05-31T14:46:56;2.20;;;2.00;;
8913;SDS011;4492;48.736;9.092;2023-05-31T14:49:22;2.20;;;1.80;;
8913;SDS011;4492;48.736;9.092;2023-05-31T14:51:48;3.23;;;2.10;;
8913;SDS011;4492;48.736;9.092;2023-05-31T14:54:15;2.17;;;1.97;;
8913;SDS011;4492;48.736;9.092;2023-05-31T14:56:44;4.40;;;2.13;;
8913;SDS011;4492;48.736;9.092;2023-05-31T14:59:10;2.83;;;2.10;;
8913;SDS011;4492;48.736;9.092;2023-05-31T15:01:37;2.60;;;2.07;;
8913;SDS011;4492;48.736;9.092;2023-05-31T15:04:08;4.10;;;2.00;;
8913;SDS011;4492;48.736;9.092;2023-05-31T15:06:35;4.43;;;2.10;;
8913;SDS011;4492;48.736;9.092;2023-05-31T15:09:01;3.37;;;2.10;;
8913;SDS011;4492;48.736;9.092;2023-05-31T15:11:27;3.83;;;1.90;;
8913;SDS011;4492;48.736;9.092;2023-05-31T15:13:53;2.10;;;2.00;;
8913;SDS011;4492;48.736;9.092;2023-05-31T15:16:19;2.80;;;2.07;;
8913;SDS011;4492;48.736;9.092;2023-05-31T15:18:46;3.40;;;2.20;;
8913;SDS011;4492;48.736;9.092;2023-05-31T15:21:12;4.13;;;2.50;;
8913;SDS011;4492;48.736;9.092;2023-05-31T15:23:37;2.47;;;2.27;;
8913;SDS011;4492;48.736;9.092;2023-05-31T15:26:02;2.73;;;2.30;;
8913;SDS011;4492;48.736;9.092;2023-05-31T15:28:28;3.40;;;1.75;;
8913;SDS011;4492;48.736;9.092;2023-05-31T15:30:54;2.85;;;1.92;;